Airport Name : Camilo Daza

Other Name : Cucuta

ICAO : SKCC

IATA : CUC

FAA :

Latitude : 7.927567

Longitude : -72.511547

Country : Colombia

Local Date and Time : 4/21/2018 5:00:00 AM

 

TAF (Terminal Aerodrome Forecast)

TAF SKCC 210500Z 2106/2206 22010KT 9999 SCT018 SCT090 TEMPO 2106/2108 8000 DZRA SCT017TCU TEMPO 2109/2113 4000 BR DZ SCT010 TEMPO 2119/2122 8000 DZRA SCT018TCU TX32/2118Z TN24/2111Z

 

METAR (METeorological Aerodrome Report)